Time;durP1;ratioP1;P1;durP2;ratioP2;P2;SDS_P1;SDS_P2;PMS_P1;PMS_P2;Temp;Humidity;BMP_temperature;BMP_pressure;BME280_temperature;BME280_humidity;BME280_pressure;Samples;Min_cycle;Max_cycle;Signal;HPM_P1;HPM_P2
2023/02/23 00:01:56;;;;;;;243.83;70.77;;;;;;;6.83;100.00;149174.44;5031254;28;20030;-64
2023/02/23 00:04:23;;;;;;;248.87;71.07;;;;;;;6.99;100.00;149214.47;5032334;28;20026;-64
2023/02/23 00:06:50;;;;;;;237.77;69.80;;;;;;;7.07;100.00;149233.84;5032234;28;20462;-64
2023/02/23 00:09:23;;;;;;;249.50;70.63;;;;;;;7.12;100.00;149246.72;5030419;28;20059;-64
2023/02/23 00:11:54;;;;;;;256.50;69.70;;;;;;;7.17;100.00;149259.69;5028199;28;20022;-64
2023/02/23 00:14:23;;;;;;;237.77;64.95;;;;;;;7.26;100.00;149282.88;5031646;28;20049;-64
2023/02/23 00:16:48;;;;;;;245.57;67.83;;;;;;;7.23;100.00;149276.44;5030936;28;20083;-64
2023/02/23 00:19:14;;;;;;;231.03;67.77;;;;;;;7.23;100.00;149275.16;5032054;28;20026;-64
2023/02/23 00:21:40;;;;;;;232.63;69.37;;;;;;;7.22;100.00;149272.56;5031222;28;20477;-65
2023/02/23 00:24:08;;;;;;;243.47;68.07;;;;;;;7.27;100.00;149286.81;5030671;28;20485;-64
2023/02/23 00:26:35;;;;;;;233.33;67.23;;;;;;;7.17;100.00;149260.97;5033104;28;20533;-64
2023/02/23 00:29:03;;;;;;;241.97;66.97;;;;;;;7.31;100.00;149297.13;5030620;28;20101;-64
2023/02/23 00:31:29;;;;;;;223.27;64.23;;;;;;;7.38;100.00;149313.88;5031282;28;20022;-64
2023/02/23 00:33:57;;;;;;;230.57;64.57;;;;;;;7.46;100.00;149334.56;5029740;28;20373;-65
2023/02/23 00:36:26;;;;;;;223.60;64.73;;;;;;;7.56;100.00;149360.41;5030630;28;20393;-64
2023/02/23 00:38:53;;;;;;;227.33;62.40;;;;;;;7.56;100.00;149360.41;5032119;28;20026;-63
2023/02/23 00:41:22;;;;;;;224.73;64.07;;;;;;;7.58;100.00;149364.28;5028653;28;20026;-64
2023/02/23 00:43:48;;;;;;;221.17;61.90;;;;;;;7.58;100.00;149365.56;5030449;28;20041;-64
2023/02/23 00:46:17;;;;;;;214.03;63.00;;;;;;;7.61;100.00;149373.31;5027794;28;20032;-64
2023/02/23 00:48:44;;;;;;;208.57;61.70;;;;;;;7.63;100.00;149378.53;5031385;28;20045;-64
2023/02/23 00:51:11;;;;;;;199.23;61.60;;;;;;;7.68;100.00;149388.84;5030016;28;20040;-64
2023/02/23 00:53:36;;;;;;;203.00;58.83;;;;;;;7.71;100.00;149396.56;5028039;28;20017;-64
2023/02/23 00:56:07;;;;;;;203.23;59.33;;;;;;;7.75;100.00;149406.91;5031722;28;20032;-64
2023/02/23 00:58:33;;;;;;;196.53;58.53;;;;;;;7.73;100.00;149403.03;5028702;28;20028;-63
2023/02/23 01:00:58;;;;;;;183.93;56.20;;;;;;;7.73;100.00;149403.03;5025458;28;20472;-63
2023/02/23 01:03:25;;;;;;;183.23;57.40;;;;;;;7.76;100.00;149409.53;5032288;28;20029;-63
2023/02/23 01:05:50;;;;;;;177.93;56.07;;;;;;;7.76;100.00;149410.81;5031200;28;20071;-63
2023/02/23 01:08:17;;;;;;;195.27;55.67;;;;;;;7.79;100.00;149418.56;5028846;28;20033;-64
2023/02/23 01:10:43;;;;;;;176.13;55.97;;;;;;;7.80;100.00;149421.13;5030680;28;20036;-64
2023/02/23 01:13:10;;;;;;;183.17;54.10;;;;;;;7.82;100.00;149425.00;5029423;28;20033;-64
2023/02/23 01:15:42;;;;;;;180.20;55.83;;;;;;;7.84;100.00;149430.16;5029231;28;20038;-64
2023/02/23 01:18:08;;;;;;;158.27;52.77;;;;;;;7.88;100.00;149440.53;5027974;28;20037;-64
2023/02/23 01:20:35;;;;;;;178.10;53.67;;;;;;;7.92;100.00;149450.84;5029486;28;20156;-64
2023/02/23 01:23:01;;;;;;;169.17;53.93;;;;;;;7.93;100.00;149453.44;5026867;28;20052;-65
2023/02/23 01:25:30;;;;;;;159.70;51.43;;;;;;;7.95;100.00;149458.59;5028472;28;20060;-64
2023/02/23 01:27:55;;;;;;;165.53;51.43;;;;;;;7.96;100.00;149459.88;5029538;28;20041;-64
2023/02/23 01:30:21;;;;;;;161.17;50.57;;;;;;;7.98;100.00;149466.34;5027575;28;20443;-64
2023/02/23 01:32:46;;;;;;;159.47;51.40;;;;;;;8.00;100.00;149471.56;5029659;28;20048;-63
2023/02/23 01:35:12;;;;;;;154.50;49.73;;;;;;;8.03;100.00;149479.28;5030485;28;20030;-64
2023/02/23 01:37:40;;;;;;;157.97;50.60;;;;;;;8.04;100.00;149481.88;5029315;28;20481;-64
2023/02/23 01:40:15;;;;;;;148.57;48.03;;;;;;;8.05;100.00;149484.44;5029353;28;20481;-64
2023/02/23 01:42:43;;;;;;;150.30;50.13;;;;;;;8.06;100.00;149487.03;5027665;28;20029;-64
2023/02/23 01:45:26;;;;;;;150.37;48.57;;;;;;;8.11;100.00;149499.94;5027168;28;20021;-63
2023/02/23 01:47:56;;;;;;;149.93;48.80;;;;;;;8.11;100.00;149498.66;5027849;28;20043;-63
2023/02/23 01:50:25;;;;;;;147.77;49.43;;;;;;;8.08;100.00;149492.19;5029114;28;20041;-64
2023/02/23 01:52:51;;;;;;;144.60;48.23;;;;;;;8.12;100.00;149501.28;5029359;28;20519;-64
2023/02/23 01:55:24;;;;;;;144.97;47.73;;;;;;;8.03;100.00;149479.28;5027873;28;20033;-64
2023/02/23 01:58:01;;;;;;;142.53;48.17;;;;;;;8.05;100.00;149484.44;5029323;28;20367;-63
2023/02/23 02:00:27;;;;;;;140.90;47.37;;;;;;;8.04;100.00;149480.59;5027839;28;20065;-67
2023/02/23 02:02:53;;;;;;;141.23;47.00;;;;;;;8.04;100.00;149480.59;5030639;28;20434;-67
2023/02/23 02:05:19;;;;;;;137.37;45.73;;;;;;;7.96;100.00;149459.88;5022733;28;20021;-67
2023/02/23 02:07:47;;;;;;;133.10;46.20;;;;;;;7.98;100.00;149466.34;5026103;28;20030;-67
2023/02/23 02:12:51;;;;;;;145.13;47.63;;;;;;;7.97;100.00;149463.75;5028995;28;20496;-67
2023/02/23 02:15:17;;;;;;;145.73;47.93;;;;;;;7.97;100.00;149463.75;5024919;28;20043;-67
2023/02/23 02:18:17;;;;;;;146.47;49.13;;;;;;;7.95;100.00;149458.59;5028372;28;20021;-67
2023/02/23 02:21:16;;;;;;;149.17;46.43;;;;;;;7.98;100.00;149466.34;5028319;28;20021;-67
2023/02/23 02:24:03;;;;;;;146.57;48.27;;;;;;;7.99;100.00;149467.63;5026293;28;20033;-66
2023/02/23 02:26:46;;;;;;;145.03;46.63;;;;;;;7.88;100.00;149440.53;5028797;28;20063;-67
2023/02/23 02:29:42;;;;;;;143.20;46.70;;;;;;;7.85;100.00;149432.75;5028907;28;20033;-67
2023/02/23 02:32:25;;;;;;;148.70;48.43;;;;;;;7.84;100.00;149430.16;5026233;28;20048;-67
2023/02/23 02:34:53;;;;;;;148.60;46.63;;;;;;;7.86;100.00;149435.31;5027553;28;20053;-67
2023/02/23 02:37:32;;;;;;;153.63;47.53;;;;;;;7.80;100.00;149421.13;5030384;28;20473;-67
2023/02/23 02:40:14;;;;;;;146.33;47.37;;;;;;;7.80;100.00;149419.84;5027847;28;20504;-67
2023/02/23 02:43:00;;;;;;;159.20;47.63;;;;;;;7.93;100.00;149454.72;5030609;28;20513;-67
2023/02/23 02:45:46;;;;;;;151.60;48.60;;;;;;;7.84;100.00;149430.16;5026172;28;20025;-67
2023/02/23 02:48:14;;;;;;;159.60;47.67;;;;;;;7.82;100.00;149426.28;5028338;28;20125;-67
2023/02/23 02:50:54;;;;;;;163.07;48.73;;;;;;;7.79;100.00;149417.28;5029732;28;20030;-67
2023/02/23 02:53:28;;;;;;;154.40;47.13;;;;;;;7.79;100.00;149417.28;5026075;28;20060;-67
2023/02/23 02:55:59;;;;;;;169.57;48.03;;;;;;;7.77;100.00;149413.41;5029394;28;20461;-67
2023/02/23 02:58:26;;;;;;;157.50;48.43;;;;;;;7.82;100.00;149425.00;5028746;28;20024;-67
2023/02/23 04:18:48;;;;;;;185.47;51.27;;;;;;;7.55;100.00;149356.53;5030327;28;20056;-67
2023/02/23 04:21:13;;;;;;;199.77;53.40;;;;;;;7.56;100.00;149360.41;5028828;28;20060;-68
2023/02/23 04:23:40;;;;;;;191.00;50.93;;;;;;;7.51;100.00;149347.50;5029864;28;20021;-68
2023/02/23 04:26:06;;;;;;;204.17;54.10;;;;;;;7.52;100.00;149350.09;5030051;28;20057;-67
2023/02/23 04:28:31;;;;;;;190.77;51.67;;;;;;;7.48;100.00;149339.72;5030170;28;20512;-67
2023/02/23 04:30:56;;;;;;;192.17;53.27;;;;;;;7.47;100.00;149335.84;5029651;28;20036;-67
2023/02/23 04:33:24;;;;;;;195.87;52.57;;;;;;;7.42;100.00;149324.25;5031862;28;20025;-67
2023/02/23 04:35:52;;;;;;;195.30;51.57;;;;;;;7.40;100.00;149319.09;5031456;28;20036;-67
2023/02/23 04:38:18;;;;;;;213.60;53.47;;;;;;;7.41;100.00;149321.66;5029915;28;20037;-67
2023/02/23 04:40:44;;;;;;;206.40;53.60;;;;;;;7.40;100.00;149319.09;5031997;28;20028;-67
2023/02/23 04:43:12;;;;;;;205.97;52.90;;;;;;;7.43;100.00;149326.84;5030460;28;20517;-67
2023/02/23 04:45:38;;;;;;;204.33;52.23;;;;;;;7.40;100.00;149319.09;5027906;28;20076;-67
2023/02/23 04:48:04;;;;;;;198.13;53.23;;;;;;;7.40;100.00;149317.81;5031070;28;20373;-67
2023/02/23 04:50:29;;;;;;;198.50;53.37;;;;;;;7.38;100.00;149313.88;5030968;28;20388;-67
2023/02/23 04:52:55;;;;;;;200.27;51.37;;;;;;;7.37;100.00;149311.31;5030452;28;20757;-67
2023/02/23 04:55:23;;;;;;;204.33;52.90;;;;;;;7.36;100.00;149308.72;5029087;28;20112;-67
2023/02/23 04:57:50;;;;;;;216.27;54.77;;;;;;;7.40;100.00;149319.09;5031133;28;20432;-67
2023/02/23 05:00:17;;;;;;;201.27;53.33;;;;;;;7.37;100.00;149310.00;5029029;28;20466;-67
2023/02/23 05:02:43;;;;;;;211.90;55.10;;;;;;;7.40;100.00;149319.09;5029055;28;20412;-67
2023/02/23 05:05:09;;;;;;;208.70;53.93;;;;;;;7.42;100.00;149322.97;5033267;28;20478;-67
2023/02/23 05:07:35;;;;;;;209.27;55.87;;;;;;;7.42;100.00;149322.97;5031996;28;20056;-67
2023/02/23 05:10:01;;;;;;;209.60;54.37;;;;;;;7.40;100.00;149319.09;5030431;28;20090;-67
2023/02/23 05:12:27;;;;;;;207.27;55.03;;;;;;;7.40;100.00;149319.09;5032399;28;20033;-67
2023/02/23 05:14:52;;;;;;;223.13;56.57;;;;;;;7.43;100.00;149326.84;5031550;28;20101;-67
2023/02/23 05:17:17;;;;;;;215.53;54.67;;;;;;;7.40;100.00;149319.09;5029941;28;20060;-67
2023/02/23 05:19:43;;;;;;;207.47;55.73;;;;;;;7.40;100.00;149319.09;5028667;28;20432;-67
2023/02/23 05:22:11;;;;;;;210.53;53.77;;;;;;;7.40;100.00;149317.81;5033396;28;20053;-66
2023/02/23 05:24:40;;;;;;;211.07;56.73;;;;;;;7.46;100.00;149333.28;5030723;28;20029;-67
2023/02/23 05:27:09;;;;;;;222.77;55.73;;;;;;;7.41;100.00;149321.66;5030216;28;20083;-67
2023/02/23 05:29:35;;;;;;;216.23;55.73;;;;;;;7.42;100.00;149324.25;5030195;28;20021;-67
2023/02/23 05:32:01;;;;;;;248.30;59.70;;;;;;;7.43;100.00;149326.84;5031838;28;20033;-67
2023/02/23 05:34:27;;;;;;;206.47;57.13;;;;;;;7.44;100.00;149329.41;5029816;28;20555;-67
2023/02/23 05:36:53;;;;;;;235.77;57.90;;;;;;;7.42;100.00;149324.25;5031449;28;20108;-67
2023/02/23 05:39:19;;;;;;;238.57;58.50;;;;;;;7.41;100.00;149321.66;5028063;28;20025;-67
2023/02/23 05:41:44;;;;;;;225.17;57.30;;;;;;;7.39;100.00;149316.50;5032905;28;20083;-67
2023/02/23 05:44:09;;;;;;;245.37;58.40;;;;;;;7.45;100.00;149332.00;5031529;28;20493;-67
2023/02/23 05:46:35;;;;;;;223.00;58.67;;;;;;;7.43;100.00;149326.84;5027736;28;20025;-67
2023/02/23 05:49:01;;;;;;;224.80;58.60;;;;;;;7.37;100.00;149310.00;5030102;28;20025;-67
2023/02/23 05:51:29;;;;;;;221.87;54.77;;;;;;;7.33;100.00;149301.00;5029662;28;20037;-67
2023/02/23 05:53:55;;;;;;;238.10;55.77;;;;;;;7.31;100.00;149295.84;5028126;28;20400;-67
2023/02/23 05:56:20;;;;;;;258.33;59.13;;;;;;;7.39;100.00;149315.16;5031947;28;20033;-67
2023/02/23 05:58:56;;;;;;;240.77;57.63;;;;;;;7.30;100.00;149293.25;5029485;28;20060;-66
2023/02/23 06:01:23;;;;;;;256.63;52.73;;;;;;;7.29;100.00;149290.66;5027188;28;20033;-66
2023/02/23 06:03:48;;;;;;;257.47;56.43;;;;;;;7.26;100.00;149282.88;5030155;28;20091;-67
2023/02/23 06:06:14;;;;;;;270.70;58.23;;;;;;;7.24;100.00;149277.72;5029796;28;20022;-67
2023/02/23 06:08:40;;;;;;;267.07;55.93;;;;;;;7.22;100.00;149273.84;5031081;28;20108;-67
2023/02/23 06:11:05;;;;;;;266.67;56.70;;;;;;;7.19;100.00;149264.84;5037825;28;20056;-66
2023/02/23 06:13:31;;;;;;;270.77;58.90;;;;;;;7.23;100.00;149275.16;5030251;28;20033;-67
2023/02/23 06:15:58;;;;;;;298.20;62.30;;;;;;;7.18;100.00;149262.25;5029960;28;20479;-66
2023/02/23 06:18:24;;;;;;;271.90;58.20;;;;;;;7.17;100.00;149259.69;5029629;28;20033;-67
2023/02/23 06:20:49;;;;;;;291.80;56.93;;;;;;;7.14;100.00;149251.88;5029029;28;20108;-67
2023/02/23 06:23:15;;;;;;;299.40;59.67;;;;;;;7.13;100.00;149249.31;5030132;28;20116;-66
2023/02/23 06:25:41;;;;;;;291.63;57.00;;;;;;;7.13;100.00;149249.31;5027623;28;20362;-67
2023/02/23 06:28:07;;;;;;;308.27;57.90;;;;;;;7.13;100.00;149250.59;5030002;28;20025;-67
2023/02/23 06:30:34;;;;;;;315.83;59.27;;;;;;;7.11;100.00;149245.44;5030313;28;20462;-67
2023/02/23 06:32:59;;;;;;;282.00;56.43;;;;;;;7.08;100.00;149236.41;5030813;28;20037;-66
2023/02/23 06:35:26;;;;;;;312.97;59.00;;;;;;;7.14;100.00;149251.88;5030895;28;20470;-67
2023/02/23 06:37:52;;;;;;;302.77;58.97;;;;;;;7.14;100.00;149251.88;5029728;28;20055;-67
2023/02/23 06:40:18;;;;;;;307.03;60.37;;;;;;;7.11;100.00;149244.16;5028182;28;20029;-67
2023/02/23 06:42:43;;;;;;;313.73;61.30;;;;;;;7.20;100.00;149267.41;5028249;28;20031;-67
2023/02/23 06:45:09;;;;;;;315.70;57.67;;;;;;;7.14;100.00;149253.19;5028362;28;20025;-67
2023/02/23 06:47:35;;;;;;;322.00;59.17;;;;;;;7.17;100.00;149259.69;5029333;28;20460;-67
2023/02/23 06:50:02;;;;;;;319.40;57.67;;;;;;;7.14;100.00;149251.88;5027826;28;20027;-66
2023/02/23 06:52:27;;;;;;;318.03;57.10;;;;;;;7.16;100.00;149257.09;5030733;28;20085;-66
2023/02/23 06:54:52;;;;;;;327.63;59.40;;;;;;;7.22;100.00;149272.56;5028613;28;20104;-67
2023/02/23 06:57:18;;;;;;;334.47;58.20;;;;;;;7.24;100.00;149277.72;5028232;28;20036;-67
2023/02/23 06:59:43;;;;;;;318.33;57.50;;;;;;;7.28;100.00;149288.09;5028955;28;20140;-67
2023/02/23 07:02:11;;;;;;;332.23;58.83;;;;;;;7.22;100.00;149272.56;5029290;28;20029;-66
2023/02/23 07:04:36;;;;;;;319.97;56.00;;;;;;;7.18;100.00;149262.25;5029085;28;20017;-66
2023/02/23 07:07:02;;;;;;;343.50;57.83;;;;;;;7.26;100.00;149282.88;5028395;28;20108;-67
2023/02/23 07:09:27;;;;;;;350.80;55.70;;;;;;;7.26;100.00;149284.16;5029393;28;20053;-67
2023/02/23 07:11:53;;;;;;;358.80;55.20;;;;;;;7.30;100.00;149293.25;5027500;28;20060;-67
2023/02/23 07:14:18;;;;;;;370.37;59.00;;;;;;;7.33;100.00;149301.00;5031128;28;20428;-67
2023/02/23 07:16:43;;;;;;;372.90;56.23;;;;;;;7.35;100.00;149306.16;5027071;28;20057;-67
2023/02/23 07:19:09;;;;;;;362.43;56.57;;;;;;;7.38;100.00;149313.88;5030445;28;20032;-66
2023/02/23 07:21:34;;;;;;;364.00;57.00;;;;;;;7.41;100.00;149321.66;5037596;28;20037;-67
2023/02/23 07:24:03;;;;;;;351.77;56.20;;;;;;;7.42;100.00;149324.25;5031337;28;20068;-66
2023/02/23 07:26:29;;;;;;;324.80;53.87;;;;;;;7.46;100.00;149334.56;5025432;28;20029;-67
2023/02/23 07:28:54;;;;;;;338.97;55.67;;;;;;;7.56;100.00;149360.41;5024902;28;20095;-67
2023/02/23 07:31:20;;;;;;;352.37;56.30;;;;;;;7.59;100.00;149368.16;5025145;28;20021;-67
2023/02/23 07:33:45;;;;;;;323.50;56.07;;;;;;;7.59;100.00;149368.16;5028634;28;20107;-66
2023/02/23 07:36:11;;;;;;;311.87;54.33;;;;;;;7.60;100.00;149369.44;5021400;28;20112;-66
2023/02/23 07:38:36;;;;;;;311.80;52.83;;;;;;;7.67;100.00;149387.56;5024996;28;20064;-67
2023/02/23 07:41:03;;;;;;;314.23;52.83;;;;;;;7.73;100.00;149403.03;5025261;28;20488;-66
2023/02/23 07:43:30;;;;;;;293.40;51.87;;;;;;;7.63;100.00;149378.53;5029865;28;20051;-67
2023/02/23 07:46:00;;;;;;;300.37;51.77;;;;;;;7.74;100.00;149404.31;5029011;28;20029;-67
2023/02/23 07:48:26;;;;;;;300.20;50.67;;;;;;;7.85;100.00;149434.03;5030625;28;20758;-67
2023/02/23 07:50:51;;;;;;;278.23;48.07;;;;;;;7.92;100.00;149450.84;5030622;28;20156;-67
2023/02/23 07:53:18;;;;;;;280.90;50.63;;;;;;;7.91;100.00;149448.28;5030848;28;20026;-67
2023/02/23 07:55:45;;;;;;;260.17;48.83;;;;;;;7.94;100.00;149457.31;5033740;28;20473;-66
2023/02/23 07:58:14;;;;;;;223.57;47.30;;;;;;;7.91;100.00;149448.28;5030314;28;20036;-67
2023/02/23 08:00:39;;;;;;;234.17;47.87;;;;;;;8.03;100.00;149479.28;5031416;28;20033;-66
2023/02/23 08:03:06;;;;;;;218.97;48.27;;;;;;;8.02;100.00;149476.72;5034446;28;20044;-67
2023/02/23 08:05:31;;;;;;;217.87;46.93;;;;;;;8.07;100.00;149489.63;5033371;28;20104;-67
2023/02/23 08:07:58;;;;;;;218.47;47.13;;;;;;;8.00;100.00;149471.56;5034871;28;20112;-66
2023/02/23 08:10:24;;;;;;;202.60;47.10;;;;;;;8.07;100.00;149489.63;5033271;28;20025;-67
2023/02/23 08:12:49;;;;;;;215.53;46.43;;;;;;;8.07;100.00;149489.63;5034349;28;20030;-67
2023/02/23 08:15:15;;;;;;;213.47;45.37;;;;;;;8.13;100.00;149503.88;5031865;28;20053;-67
2023/02/23 08:17:42;;;;;;;210.00;44.50;;;;;;;8.06;100.00;149487.03;5030479;28;20032;-66
2023/02/23 08:20:08;;;;;;;200.73;43.23;;;;;;;7.91;100.00;149448.28;5041518;28;20037;-67
2023/02/23 08:22:34;;;;;;;217.50;43.80;;;;;;;8.03;100.00;149478.00;5034283;28;20104;-67
2023/02/23 08:25:00;;;;;;;219.27;45.10;;;;;;;8.05;100.00;149484.44;5032941;28;20141;-66
2023/02/23 08:27:26;;;;;;;217.87;45.77;;;;;;;8.18;100.00;149518.06;5034377;28;20056;-66
2023/02/23 08:29:55;;;;;;;221.63;46.30;;;;;;;7.98;100.00;149466.34;5033327;28;20025;-67
2023/02/23 08:32:21;;;;;;;212.07;45.90;;;;;;;8.08;100.00;149492.19;5033597;28;20025;-66
2023/02/23 08:34:46;;;;;;;214.63;44.53;;;;;;;8.11;100.00;149499.94;5033983;28;20469;-67
2023/02/23 08:37:12;;;;;;;203.87;45.40;;;;;;;8.14;100.00;149507.72;5034192;28;20037;-66
2023/02/23 08:39:37;;;;;;;207.50;45.23;;;;;;;8.06;100.00;149487.03;5035604;28;20473;-66
2023/02/23 08:42:03;;;;;;;211.93;45.27;;;;;;;8.15;100.00;149510.31;5033196;28;20140;-66
2023/02/23 08:44:29;;;;;;;204.43;45.83;;;;;;;8.17;100.00;149515.47;5031441;28;20029;-66
2023/02/23 08:46:57;;;;;;;203.40;47.33;;;;;;;8.17;100.00;149515.47;5033901;28;20090;-67
2023/02/23 08:49:23;;;;;;;201.63;46.50;;;;;;;8.10;100.00;149497.34;5032965;28;20025;-67
2023/02/23 08:51:49;;;;;;;201.13;46.70;;;;;;;8.11;100.00;149499.94;5033815;28;20084;-67
2023/02/23 08:54:15;;;;;;;190.50;45.23;;;;;;;7.96;100.00;149461.19;5032253;28;20418;-66
2023/02/23 08:56:40;;;;;;;205.97;47.40;;;;;;;8.14;100.00;149507.72;5024413;28;20052;-66
2023/02/23 08:59:07;;;;;;;196.43;46.67;;;;;;;8.17;100.00;149515.47;5033078;28;20026;-66
2023/02/23 09:01:32;;;;;;;203.37;48.90;;;;;;;8.20;100.00;149523.22;5033106;28;20049;-66
2023/02/23 09:03:58;;;;;;;216.07;51.27;;;;;;;8.29;100.00;149543.91;5033570;28;20507;-66
2023/02/23 09:06:25;;;;;;;201.73;47.57;;;;;;;8.29;100.00;149543.91;5040355;28;20068;-66
2023/02/23 09:08:53;;;;;;;191.53;46.60;;;;;;;8.16;100.00;149511.59;5033534;28;20021;-66
2023/02/23 09:11:18;;;;;;;213.10;52.70;;;;;;;8.10;100.00;149496.06;5032709;28;20033;-66
2023/02/23 09:13:44;;;;;;;197.00;47.27;;;;;;;8.09;100.00;149494.78;5051527;28;20036;-66
2023/02/23 09:16:09;;;;;;;188.57;47.97;;;;;;;8.08;100.00;149492.19;5042714;28;20026;-66
2023/02/23 09:18:35;;;;;;;197.53;49.10;;;;;;;8.05;100.00;149484.44;5046588;28;20424;-66
2023/02/23 09:21:07;;;;;;;199.23;49.53;;;;;;;7.99;100.00;149467.63;5041830;28;20033;-66
2023/02/23 09:23:33;;;;;;;185.98;44.50;;;;;;;7.88;100.00;149440.53;5031865;28;20036;-67
2023/02/23 09:26:06;;;;;;;218.80;50.83;;;;;;;8.07;100.00;149489.63;5046486;28;20151;-66
2023/02/23 09:28:32;;;;;;;195.63;48.57;;;;;;;7.98;100.00;149466.34;5044848;28;20488;-67
2023/02/23 09:31:04;;;;;;;203.50;50.63;;;;;;;8.07;100.00;149489.63;5032735;28;20025;-67
2023/02/23 09:33:29;;;;;;;209.82;51.63;;;;;;;8.10;100.00;149497.34;5031182;28;20049;-66
2023/02/23 09:35:54;;;;;;;222.40;50.93;;;;;;;8.17;100.00;149515.47;5032727;28;20112;-66
2023/02/23 09:38:20;;;;;;;187.03;46.17;;;;;;;8.12;100.00;149502.56;5033145;28;20112;-67
2023/02/23 09:40:48;;;;;;;187.37;46.73;;;;;;;8.20;100.00;149523.22;5033626;28;20788;-67
2023/02/23 09:43:44;;;;;;;173.77;46.37;;;;;;;8.34;100.00;149556.81;5049154;28;20532;-67
2023/02/23 09:46:37;;;;;;;191.97;48.07;;;;;;;8.32;100.00;149551.66;5031125;28;20120;-67
2023/02/23 09:49:09;;;;;;;165.83;43.83;;;;;;;8.15;100.00;149510.31;5032732;28;20033;-66
2023/02/23 09:51:37;;;;;;;;;;;;;;;8.14;100.00;149506.44;5033194;28;20025;-67
2023/02/23 09:54:07;;;;;;;174.47;44.40;;;;;;;8.19;100.00;149520.63;5030933;28;19913;-66
2023/02/23 09:56:36;;;;;;;191.70;46.73;;;;;;;8.19;100.00;149520.63;5049300;28;20112;-67
2023/02/23 09:59:05;;;;;;;169.57;43.40;;;;;;;8.18;100.00;149516.75;5033254;28;20072;-67
2023/02/23 10:01:48;;;;;;;190.13;46.27;;;;;;;8.15;100.00;149510.31;5032593;28;20025;-66
2023/02/23 10:04:31;;;;;;;172.40;42.83;;;;;;;8.13;100.00;149505.16;5031174;28;20037;-66
2023/02/23 10:07:13;;;;;;;194.53;47.23;;;;;;;8.33;100.00;149555.53;5047321;28;20056;-67
2023/02/23 10:10:02;;;;;;;162.43;41.17;;;;;;;8.23;100.00;149529.66;5036226;28;20030;-66
2023/02/23 10:12:57;;;;;;;146.87;40.50;;;;;;;8.47;100.00;149590.47;5035587;28;20104;-66
2023/02/23 10:15:34;;;;;;;160.63;41.47;;;;;;;8.50;100.00;149599.56;5030982;28;20040;-66
2023/02/23 10:18:29;;;;;;;151.63;38.50;;;;;;;8.43;100.00;149580.16;5032201;28;20025;-66
2023/02/23 10:21:06;;;;;;;141.23;39.23;;;;;;;8.46;100.00;149589.19;5032369;28;20350;-67
2023/02/23 10:23:41;;;;;;;124.93;35.97;;;;;;;8.55;100.00;149611.19;5031170;28;20029;-67
2023/02/23 10:26:14;;;;;;;143.93;36.57;;;;;;;8.58;100.00;149618.94;5030690;28;20040;-67
2023/02/23 10:28:39;;;;;;;133.07;35.60;;;;;;;8.49;100.00;149597.00;5031782;28;20497;-67
2023/02/23 10:31:26;;;;;;;132.10;35.27;;;;;;;8.39;100.00;149571.13;5032176;28;20156;-66
2023/02/23 10:33:54;;;;;;;131.83;34.80;;;;;;;8.41;100.00;149575.00;5030490;28;20038;-67
2023/02/23 10:36:33;;;;;;;137.30;34.70;;;;;;;8.47;100.00;149590.47;5030783;28;20037;-67
2023/02/23 10:38:59;;;;;;;120.77;33.50;;;;;;;8.51;100.00;149600.84;5029261;28;20021;-66
2023/02/23 10:41:24;;;;;;;117.27;32.07;;;;;;;8.47;100.00;149590.47;5032788;28;20389;-67
2023/02/23 10:43:49;;;;;;;117.63;32.63;;;;;;;8.59;100.00;149620.22;5031632;28;20060;-67
2023/02/23 10:46:23;;;;;;;119.30;33.67;;;;;;;8.78;100.00;149669.38;5028782;28;20026;-67
2023/02/23 10:48:50;;;;;;;111.57;32.00;;;;;;;8.86;100.00;149688.78;5031454;28;20489;-67
2023/02/23 10:51:23;;;;;;;104.33;30.47;;;;;;;8.88;100.00;149695.25;5030405;28;20032;-67
2023/02/23 10:53:49;;;;;;;114.60;31.27;;;;;;;8.85;100.00;149686.22;5031067;28;20032;-67
2023/02/23 10:56:17;;;;;;;104.57;28.30;;;;;;;8.79;100.00;149673.25;5030822;28;20026;-67
2023/02/23 10:58:46;;;;;;;97.30;26.17;;;;;;;8.84;100.00;149683.59;5039751;28;20066;-67
2023/02/23 11:01:37;;;;;;;88.33;25.83;;;;;;;8.68;100.00;149644.78;5033752;28;20064;-67
2023/02/23 11:04:25;;;;;;;92.65;24.77;;;;;;;8.74;100.00;149660.34;5022721;28;20077;-67
2023/02/23 11:07:04;;;;;;;84.60;25.27;;;;;;;8.75;100.00;149662.94;5028132;28;20037;-66
2023/02/23 11:09:32;;;;;;;88.70;25.33;;;;;;;8.73;100.00;149656.47;5029431;28;20029;-66
2023/02/23 11:12:15;;;;;;;94.83;26.00;;;;;;;8.82;100.00;149681.00;5031368;28;20034;-66
2023/02/23 11:14:41;;;;;;;86.77;25.70;;;;;;;8.69;100.00;149647.38;5029793;28;20029;-67
2023/02/23 11:17:47;;;;;;;88.33;25.77;;;;;;;8.81;100.00;149678.41;5031095;28;20359;-67
2023/02/23 11:20:15;;;;;;;87.47;24.73;;;;;;;8.70;100.00;149648.66;5030726;28;20040;-67
2023/02/23 11:22:41;;;;;;;94.20;25.63;;;;;;;8.59;100.00;149621.50;5031284;28;20029;-66
2023/02/23 11:25:26;;;;;;;82.37;24.57;;;;;;;8.50;100.00;149599.56;5028597;28;20475;-67
2023/02/23 11:27:55;;;;;;;89.43;25.50;;;;;;;8.36;100.00;149563.38;5031651;28;20028;-67
2023/02/23 11:30:28;;;;;;;89.47;25.80;;;;;;;8.48;100.00;149594.41;5031101;28;20410;-66
2023/02/23 11:32:57;;;;;;;90.93;25.83;;;;;;;8.47;100.00;149590.47;5030254;28;20053;-66
2023/02/23 11:35:22;;;;;;;88.90;24.60;;;;;;;8.56;100.00;149613.75;5029228;28;20029;-67
2023/02/23 11:37:48;;;;;;;96.47;25.27;;;;;;;8.65;100.00;149635.75;5035279;28;20033;-66
2023/02/23 11:40:16;;;;;;;86.13;24.80;;;;;;;8.60;100.00;149624.13;5032532;28;20056;-66
2023/02/23 11:42:52;;;;;;;83.27;23.47;;;;;;;8.51;100.00;149602.16;5032407;28;20038;-66
2023/02/23 11:45:19;;;;;;;80.90;22.73;;;;;;;8.58;100.00;149618.94;5033554;28;20680;-66
2023/02/23 11:47:51;;;;;;;83.07;21.20;;;;;;;8.47;100.00;149590.47;5034907;28;20025;-66
2023/02/23 11:50:24;;;;;;;84.28;22.83;;;;;;;8.60;100.00;149624.13;5033899;28;20029;-66
2023/02/23 11:53:02;;;;;;;84.57;20.90;;;;;;;8.47;100.00;149590.47;5024981;28;20029;-66
2023/02/23 11:55:30;;;;;;;78.27;19.80;;;;;;;8.25;100.00;149533.59;5033014;28;20070;-66
2023/02/23 11:58:22;;;;;;;76.50;19.87;;;;;;;8.39;100.00;149569.81;5034383;28;20029;-66
2023/02/23 12:00:59;;;;;;;71.17;18.33;;;;;;;8.32;100.00;149552.94;5033307;28;20513;-66
2023/02/23 12:03:26;;;;;;;79.23;19.37;;;;;;;8.45;100.00;149585.31;5033931;28;20398;-67
2023/02/23 12:05:56;;;;;;;80.87;19.57;;;;;;;8.27;100.00;149540.03;5034780;28;20583;-66
2023/02/23 12:08:43;;;;;;;93.83;21.23;;;;;;;8.33;100.00;149554.25;5034399;28;20063;-66
2023/02/23 12:11:19;;;;;;;86.87;21.33;;;;;;;8.26;100.00;149536.16;5033230;28;20029;-66
2023/02/23 12:13:49;;;;;;;99.00;21.90;;;;;;;8.18;100.00;149516.75;5034387;28;20036;-66
2023/02/23 12:16:24;;;;;;;91.00;22.17;;;;;;;8.24;100.00;149532.28;5034525;28;20025;-66
2023/02/23 12:19:02;;;;;;;92.80;22.07;;;;;;;8.33;100.00;149554.25;5034609;28;20393;-66
2023/02/23 12:21:56;;;;;;;99.10;22.63;;;;;;;8.37;100.00;149564.66;5034102;28;20042;-67
2023/02/23 12:24:38;;;;;;;84.63;21.93;;;;;;;8.44;100.00;149582.75;5042176;28;20025;-67
2023/02/23 12:27:14;;;;;;;78.80;19.77;;;;;;;8.34;100.00;149558.16;5034270;28;20563;-67
2023/02/23 12:30:23;;;;;;;95.53;21.80;;;;;;;8.42;100.00;149578.88;5032986;28;20117;-66
2023/02/23 12:33:16;;;;;;;79.03;20.77;;;;;;;8.37;100.00;149564.66;4985153;28;20040;-66
2023/02/23 12:35:45;;;;;;;82.70;19.77;;;;;;;8.34;100.00;149556.81;4991557;28;20446;-66